Time;durP1;ratioP1;P1;durP2;ratioP2;P2;SDS_P1;SDS_P2;PMS_P1;PMS_P2;Temp;Humidity;BMP_temperature;BMP_pressure;BME280_temperature;BME280_humidity;BME280_pressure;Samples;Min_cycle;Max_cycle;Signal;HPM_P1;HPM_P2
2022/11/22 00:00:17;;;;;;;4.40;3.40;;;6.80;99.90;;;;;;5064456;28;20229;-72
2022/11/22 00:02:43;;;;;;;5.13;3.00;;;6.80;99.90;;;;;;5053971;28;20469;-72
2022/11/22 00:05:09;;;;;;;5.63;3.77;;;6.80;99.90;;;;;;5085882;28;20457;-72
2022/11/22 00:07:36;;;;;;;4.70;3.60;;;6.80;99.90;;;;;;5066662;28;20461;-70
2022/11/22 00:10:06;;;;;;;4.27;3.87;;;6.80;99.90;;;;;;5074371;28;20504;-71
2022/11/22 00:12:32;;;;;;;5.63;3.87;;;6.80;99.90;;;;;;5100020;28;21046;-71
2022/11/22 00:14:57;;;;;;;6.77;3.70;;;6.80;99.90;;;;;;5080303;28;20564;-71
2022/11/22 00:17:23;;;;;;;4.13;3.73;;;6.80;99.90;;;;;;5068173;28;20302;-72
2022/11/22 00:19:49;;;;;;;8.17;3.57;;;6.80;99.90;;;;;;5049921;28;20242;-72
2022/11/22 00:22:14;;;;;;;3.93;3.10;;;6.80;99.90;;;;;;5082706;28;20226;-72
2022/11/22 00:24:40;;;;;;;4.80;4.30;;;6.90;99.90;;;;;;5068368;28;20233;-71
2022/11/22 00:27:06;;;;;;;6.60;3.97;;;6.80;99.90;;;;;;5080756;28;20297;-72
2022/11/22 00:29:31;;;;;;;3.40;3.10;;;6.90;99.90;;;;;;5069605;28;20820;-72
2022/11/22 00:31:57;;;;;;;5.37;3.80;;;6.90;99.90;;;;;;5068820;28;20704;-71
2022/11/22 00:34:23;;;;;;;5.93;4.37;;;6.90;99.90;;;;;;5056954;28;20219;-72
2022/11/22 00:36:48;;;;;;;3.43;2.97;;;6.90;99.90;;;;;;5067232;28;20218;-72
2022/11/22 00:39:14;;;;;;;5.90;3.60;;;6.90;99.90;;;;;;5066839;28;20238;-72
2022/11/22 00:41:40;;;;;;;6.83;4.53;;;6.90;99.90;;;;;;5085363;28;20215;-71
2022/11/22 00:44:05;;;;;;;5.50;3.90;;;6.90;99.90;;;;;;5071222;28;20268;-72
2022/11/22 00:46:31;;;;;;;4.53;4.13;;;6.90;99.90;;;;;;5073755;28;20268;-71
2022/11/22 00:48:56;;;;;;;4.90;4.00;;;6.80;99.90;;;;;;5070212;28;20217;-73
2022/11/22 00:51:22;;;;;;;4.20;3.53;;;6.80;99.90;;;;;;5053648;28;20242;-72
2022/11/22 00:53:48;;;;;;;4.83;3.77;;;6.90;99.90;;;;;;5069569;28;20452;-72
2022/11/22 00:56:13;;;;;;;8.33;5.17;;;6.90;99.90;;;;;;5071735;28;20628;-72
2022/11/22 00:58:39;;;;;;;4.77;4.00;;;6.90;99.90;;;;;;5071507;28;20815;-71
2022/11/22 01:01:05;;;;;;;6.57;4.27;;;6.90;99.90;;;;;;5069506;28;20355;-72
2022/11/22 01:03:30;;;;;;;5.20;4.30;;;6.90;99.90;;;;;;5069565;28;20673;-71
2022/11/22 01:05:56;;;;;;;3.03;2.60;;;6.90;99.90;;;;;;5070427;28;20593;-71
2022/11/22 01:08:21;;;;;;;4.83;3.90;;;6.90;99.90;;;;;;5054636;28;20701;-72
2022/11/22 01:10:47;;;;;;;3.77;3.37;;;6.90;99.90;;;;;;5071804;28;20227;-72
2022/11/22 01:13:13;;;;;;;5.93;3.80;;;6.90;99.90;;;;;;5070427;28;20230;-72
2022/11/22 01:15:38;;;;;;;5.17;3.73;;;6.90;99.90;;;;;;5105873;27;20211;-72
2022/11/22 01:18:04;;;;;;;5.23;3.57;;;6.90;99.90;;;;;;5054662;28;20238;-71
2022/11/22 01:20:30;;;;;;;8.17;4.83;;;6.90;99.90;;;;;;5067321;28;20219;-72
2022/11/22 01:22:56;;;;;;;5.73;4.33;;;6.90;99.90;;;;;;5085503;28;20685;-72
2022/11/22 01:25:22;;;;;;;5.63;4.23;;;6.90;99.90;;;;;;5084544;28;20211;-72
2022/11/22 01:27:49;;;;;;;4.23;3.90;;;6.90;99.90;;;;;;5068391;28;20460;-72
2022/11/22 01:30:16;;;;;;;4.77;4.00;;;6.90;99.90;;;;;;5068990;28;20238;-72
2022/11/22 01:32:41;;;;;;;4.47;4.00;;;6.90;99.90;;;;;;5069627;28;20462;-71
2022/11/22 01:35:08;;;;;;;4.97;3.50;;;6.90;99.90;;;;;;5074572;28;21080;-72
2022/11/22 01:37:34;;;;;;;4.80;4.27;;;7.00;99.90;;;;;;5087981;28;20232;-71
2022/11/22 01:39:59;;;;;;;6.13;3.27;;;7.00;99.90;;;;;;5072243;28;20469;-72
2022/11/22 01:42:47;;;;;;;3.93;3.13;;;7.00;99.90;;;;;;5074622;28;20460;-72
2022/11/22 01:45:28;;;;;;;4.80;3.53;;;7.00;99.90;;;;;;5083401;28;20215;-72
2022/11/22 01:47:59;;;;;;;3.57;2.50;;;7.00;99.90;;;;;;5066966;28;20501;-72
2022/11/22 01:50:26;;;;;;;4.90;3.80;;;7.00;99.90;;;;;;5068942;28;20453;-72
2022/11/22 01:52:53;;;;;;;4.43;3.07;;;7.00;99.90;;;;;;5068376;28;20993;-72
2022/11/22 01:55:19;;;;;;;2.50;2.30;;;7.00;99.90;;;;;;5085878;28;20567;-72
2022/11/22 01:57:46;;;;;;;3.83;3.37;;;7.00;99.90;;;;;;5069454;28;21049;-71
2022/11/22 02:00:15;;;;;;;3.97;2.70;;;7.00;99.90;;;;;;5053172;28;20642;-72
2022/11/22 02:02:49;;;;;;;3.30;2.50;;;7.00;99.90;;;;;;5068739;28;20465;-71
2022/11/22 02:05:18;;;;;;;3.40;2.57;;;7.00;99.90;;;;;;5070451;28;20487;-72
2022/11/22 02:08:12;;;;;;;2.53;1.80;;;7.00;99.90;;;;;;5054693;28;20460;-71
2022/11/22 02:10:43;;;;;;;2.70;1.93;;;7.00;99.90;;;;;;5101707;27;20472;-72
2022/11/22 02:13:12;;;;;;;2.00;1.80;;;7.00;99.90;;;;;;5087386;28;20560;-72
2022/11/22 02:15:38;;;;;;;2.17;1.87;;;7.00;99.90;;;;;;5075927;28;20503;-72
2022/11/22 02:18:03;;;;;;;2.03;1.63;;;7.00;99.90;;;;;;5070221;28;20990;-72
2022/11/22 02:20:29;;;;;;;2.17;1.80;;;7.00;99.90;;;;;;5070347;28;20215;-71
2022/11/22 02:23:23;;;;;;;2.07;1.87;;;7.00;99.90;;;;;;5070287;28;20389;-72
2022/11/22 02:25:57;;;;;;;1.80;1.70;;;7.10;99.90;;;;;;5060601;28;20299;-72
2022/11/22 02:28:23;;;;;;;2.37;1.93;;;7.10;99.90;;;;;;5070953;28;20457;-72
2022/11/22 02:30:49;;;;;;;2.03;1.67;;;7.10;99.90;;;;;;5069746;28;20458;-72
2022/11/22 02:33:14;;;;;;;2.97;1.70;;;7.00;99.90;;;;;;5103540;27;20449;-72
2022/11/22 02:35:40;;;;;;;1.93;1.40;;;7.00;99.90;;;;;;5068711;28;20280;-71
2022/11/22 02:38:30;;;;;;;1.93;1.73;;;7.00;99.90;;;;;;5069244;28;20218;-72
2022/11/22 02:41:10;;;;;;;1.33;1.23;;;7.00;99.90;;;;;;5068535;28;20462;-72
2022/11/22 02:43:43;;;;;;;5.33;1.87;;;7.10;99.90;;;;;;5086088;28;20457;-71
2022/11/22 02:46:21;;;;;;;4.70;1.67;;;7.00;99.90;;;;;;5067336;28;20967;-71
2022/11/22 02:48:47;;;;;;;1.97;1.63;;;7.00;99.90;;;;;;5047640;28;20439;-72
2022/11/22 02:51:18;;;;;;;3.13;1.50;;;7.10;99.90;;;;;;5069451;28;20462;-72
2022/11/22 02:53:48;;;;;;;1.73;1.63;;;7.10;99.90;;;;;;5069139;28;20207;-71
2022/11/22 02:56:15;;;;;;;3.10;1.70;;;7.10;99.90;;;;;;5069532;28;20454;-71
2022/11/22 02:58:41;;;;;;;2.73;1.80;;;7.10;99.90;;;;;;5070220;28;20464;-71
2022/11/22 03:01:07;;;;;;;3.33;1.40;;;7.10;99.90;;;;;;5084733;28;20556;-72
2022/11/22 03:03:32;;;;;;;3.23;1.40;;;7.10;99.90;;;;;;5068890;28;20533;-71
2022/11/22 03:05:58;;;;;;;2.47;1.47;;;7.10;99.90;;;;;;5068801;28;20714;-72
2022/11/22 03:08:24;;;;;;;2.07;1.20;;;7.10;99.90;;;;;;5070343;28;20710;-72
2022/11/22 03:10:49;;;;;;;1.67;1.57;;;7.10;99.90;;;;;;5079177;28;20663;-72
2022/11/22 03:13:15;;;;;;;2.77;1.60;;;7.10;99.90;;;;;;5069043;28;20222;-72
2022/11/22 03:15:41;;;;;;;1.60;1.23;;;7.10;99.90;;;;;;5063315;28;20222;-72
2022/11/22 03:18:06;;;;;;;2.20;1.70;;;7.10;99.90;;;;;;5074709;28;20258;-72
2022/11/22 03:20:32;;;;;;;1.40;1.27;;;7.10;99.90;;;;;;5081925;28;20215;-72
2022/11/22 03:23:01;;;;;;;1.50;1.40;;;7.00;99.90;;;;;;5072968;28;20720;-72
2022/11/22 03:25:27;;;;;;;2.43;1.57;;;7.00;99.90;;;;;;5076032;28;20453;-72
2022/11/22 03:27:53;;;;;;;5.53;1.80;;;7.00;99.90;;;;;;5072939;28;20448;-72
2022/11/22 03:30:19;;;;;;;3.90;1.90;;;7.00;99.90;;;;;;5067887;28;20461;-72
2022/11/22 03:32:45;;;;;;;2.37;1.87;;;7.00;99.90;;;;;;5077362;28;20887;-72
2022/11/22 03:35:11;;;;;;;3.07;2.10;;;7.00;99.90;;;;;;5070206;28;20207;-73
2022/11/22 03:37:36;;;;;;;5.20;1.73;;;7.00;99.90;;;;;;5085816;28;20219;-69
2022/11/22 03:40:03;;;;;;;1.83;1.43;;;7.00;99.90;;;;;;5079571;28;20723;-71
2022/11/22 03:42:28;;;;;;;2.50;1.60;;;6.90;99.90;;;;;;5078269;28;20249;-70
2022/11/22 03:44:54;;;;;;;3.07;1.47;;;6.90;99.90;;;;;;5084398;28;20974;-71
2022/11/22 03:47:20;;;;;;;2.60;1.70;;;6.90;99.90;;;;;;5073198;28;20788;-72
2022/11/22 03:49:45;;;;;;;1.50;1.40;;;6.90;99.90;;;;;;5067918;28;20210;-72
2022/11/22 03:52:11;;;;;;;5.67;1.77;;;6.90;99.90;;;;;;5092680;28;20639;-73
2022/11/22 03:54:37;;;;;;;1.50;1.40;;;6.90;99.90;;;;;;5068920;28;20720;-72
2022/11/22 03:57:03;;;;;;;4.70;2.03;;;7.00;99.90;;;;;;5069324;28;20297;-70
2022/11/22 03:59:29;;;;;;;2.60;1.20;;;7.00;99.90;;;;;;5076497;28;20218;-72
2022/11/22 04:01:54;;;;;;;6.90;1.70;;;7.00;99.90;;;;;;5071456;28;20539;-72
2022/11/22 04:04:20;;;;;;;2.03;1.83;;;7.00;99.90;;;;;;5052163;28;20754;-72
2022/11/22 04:06:46;;;;;;;3.13;1.50;;;7.00;99.90;;;;;;5067054;28;20761;-73
2022/11/22 04:09:11;;;;;;;3.03;2.07;;;7.00;99.90;;;;;;5062167;28;20723;-72
2022/11/22 04:11:37;;;;;;;1.87;1.30;;;7.00;99.90;;;;;;5068504;28;20219;-72
2022/11/22 04:17:04;;;;;;;1.93;1.67;;;7.00;99.90;;;;;;5009867;28;20223;-71
2022/11/22 04:19:29;;;;;;;2.23;1.50;;;7.00;99.90;;;;;;5062621;28;20445;-72
2022/11/22 04:21:55;;;;;;;2.40;1.73;;;7.00;99.90;;;;;;5077543;28;20226;-73
2022/11/22 04:27:05;;;;;;;3.47;1.60;;;7.00;99.90;;;;;;5085991;28;20264;-71
2022/11/22 04:29:31;;;;;;;3.80;1.90;;;7.00;99.90;;;;;;5072595;28;20857;-72
2022/11/22 04:34:40;;;;;;;5.60;2.10;;;7.00;99.90;;;;;;5075310;28;20648;-71
2022/11/22 04:37:06;;;;;;;6.47;1.70;;;7.00;99.90;;;;;;5066269;28;20536;-72
2022/11/22 04:39:32;;;;;;;2.97;1.87;;;7.00;99.90;;;;;;5072911;28;20634;-72
2022/11/22 04:44:43;;;;;;;4.10;1.73;;;6.90;99.90;;;;;;5073619;28;20828;-72
2022/11/22 04:47:57;;;;;;;2.47;2.07;;;6.90;99.90;;;;;;5103020;28;20464;-72
2022/11/22 04:50:01;;;;;;;3.33;2.70;;;6.90;99.90;;;;;;5085240;28;20529;-72
2022/11/22 04:55:11;;;;;;;9.90;2.37;;;6.90;99.90;;;;;;5078640;28;20473;-72
2022/11/22 04:57:36;;;;;;;8.37;3.80;;;6.90;99.90;;;;;;5071590;28;20462;-72
2022/11/22 05:00:03;;;;;;;13.60;6.60;;;6.90;99.90;;;;;;5069874;28;20219;-72
2022/11/22 05:02:28;;;;;;;21.23;6.30;;;6.90;99.90;;;;;;5068109;28;20231;-72
2022/11/22 05:04:54;;;;;;;6.50;4.10;;;6.90;99.90;;;;;;5088133;28;20453;-71
2022/11/22 05:07:19;;;;;;;13.27;6.03;;;6.90;99.90;;;;;;5084535;28;20215;-71
2022/11/22 05:09:45;;;;;;;11.17;4.40;;;6.90;99.90;;;;;;5092168;28;20219;-72
2022/11/22 05:12:11;;;;;;;11.67;4.20;;;6.90;99.90;;;;;;5090694;28;20215;-71
2022/11/22 05:14:36;;;;;;;12.50;6.43;;;6.90;99.90;;;;;;5057395;28;20219;-71
2022/11/22 05:17:02;;;;;;;19.77;5.40;;;6.90;99.90;;;;;;5074202;28;20895;-71
2022/11/22 05:19:27;;;;;;;8.33;3.60;;;6.90;99.90;;;;;;5089891;28;20791;-71
2022/11/22 05:21:53;;;;;;;8.13;3.10;;;6.90;99.90;;;;;;5069662;28;20238;-71
2022/11/22 05:24:19;;;;;;;7.90;2.10;;;6.90;99.90;;;;;;5074997;28;20293;-71
2022/11/22 05:26:44;;;;;;;9.80;2.90;;;6.90;99.90;;;;;;5101611;28;20212;-71
2022/11/22 05:29:10;;;;;;;6.57;3.50;;;6.80;99.90;;;;;;5066309;28;20223;-71
2022/11/22 05:31:37;;;;;;;5.70;3.47;;;6.80;99.90;;;;;;5084589;28;20238;-71
2022/11/22 05:34:04;;;;;;;7.57;3.43;;;6.80;99.90;;;;;;5068039;28;20223;-71
2022/11/22 05:36:33;;;;;;;3.40;2.17;;;6.80;99.90;;;;;;5071890;28;20450;-71
2022/11/22 05:39:00;;;;;;;5.90;2.93;;;6.90;99.90;;;;;;5086853;28;20466;-72
2022/11/22 05:41:26;;;;;;;19.07;4.47;;;6.90;99.90;;;;;;5080658;28;20520;-71
2022/11/22 05:43:55;;;;;;;11.50;5.37;;;6.80;99.90;;;;;;5070822;28;20454;-72
2022/11/22 05:46:23;;;;;;;24.87;7.10;;;6.90;99.90;;;;;;5069307;28;20457;-71
2022/11/22 05:48:49;;;;;;;26.67;11.03;;;6.80;99.90;;;;;;5070254;28;20465;-71
2022/11/22 05:51:16;;;;;;;25.60;7.43;;;6.80;99.90;;;;;;5075062;28;20787;-71
2022/11/22 05:53:43;;;;;;;15.83;4.83;;;6.80;99.90;;;;;;5069524;28;20234;-70
2022/11/22 05:56:10;;;;;;;10.00;2.60;;;6.80;99.90;;;;;;5070149;28;20449;-71
2022/11/22 05:58:37;;;;;;;7.50;3.13;;;6.80;99.90;;;;;;5067673;28;20453;-70
2022/11/22 06:01:08;;;;;;;6.33;3.20;;;6.80;99.90;;;;;;5070611;28;20476;-71
2022/11/22 06:03:34;;;;;;;7.30;2.27;;;6.80;99.90;;;;;;5071464;28;20520;-70
2022/11/22 06:06:01;;;;;;;10.80;1.87;;;6.80;99.90;;;;;;5054221;28;20468;-72
2022/11/22 06:08:29;;;;;;;5.50;1.80;;;6.80;99.90;;;;;;5069954;28;20452;-71
2022/11/22 06:10:55;;;;;;;10.67;2.20;;;6.80;99.90;;;;;;5075274;28;21294;-72
2022/11/22 06:13:21;;;;;;;3.53;2.10;;;6.80;99.90;;;;;;5062262;28;20528;-71
2022/11/22 06:15:46;;;;;;;3.43;2.87;;;6.80;99.90;;;;;;5052078;28;20525;-71
2022/11/22 06:18:12;;;;;;;4.40;3.03;;;6.80;99.90;;;;;;5076277;28;20647;-71
2022/11/22 06:20:37;;;;;;;5.53;2.30;;;6.80;99.90;;;;;;5104020;27;20598;-71
2022/11/22 06:23:03;;;;;;;2.47;2.27;;;6.80;99.90;;;;;;5088549;28;20219;-70
2022/11/22 06:25:29;;;;;;;9.03;2.30;;;6.80;99.90;;;;;;5076687;28;20215;-71
2022/11/22 06:27:58;;;;;;;8.63;2.90;;;6.80;99.90;;;;;;5070329;28;20219;-70
2022/11/22 06:30:24;;;;;;;5.03;2.17;;;6.80;99.90;;;;;;5046367;28;20222;-71
2022/11/22 06:32:49;;;;;;;6.90;3.47;;;6.80;99.90;;;;;;5074362;28;20460;-70
2022/11/22 06:35:15;;;;;;;3.63;2.30;;;6.80;99.90;;;;;;5085580;28;20248;-72
2022/11/22 06:37:40;;;;;;;6.50;2.77;;;6.70;99.90;;;;;;5082598;28;20268;-71
2022/11/22 06:40:10;;;;;;;4.70;2.30;;;6.70;99.90;;;;;;5077444;28;20222;-72
2022/11/22 06:42:36;;;;;;;5.83;2.80;;;6.70;99.90;;;;;;5076918;28;20234;-72
2022/11/22 06:45:02;;;;;;;8.33;2.00;;;6.70;99.90;;;;;;5079242;28;20457;-72
2022/11/22 06:47:27;;;;;;;3.53;1.47;;;6.70;99.90;;;;;;5103234;27;20217;-73
2022/11/22 06:49:53;;;;;;;4.57;1.87;;;6.70;99.90;;;;;;5052052;28;20717;-72
2022/11/22 06:52:18;;;;;;;1.97;1.50;;;6.70;99.90;;;;;;5076745;28;20597;-72
2022/11/22 06:54:44;;;;;;;4.00;1.60;;;6.70;99.90;;;;;;5084122;28;20356;-72
2022/11/22 06:57:13;;;;;;;2.87;1.90;;;6.70;99.90;;;;;;5074884;28;20294;-70
2022/11/22 06:59:39;;;;;;;2.67;2.30;;;6.70;99.90;;;;;;5097817;28;20223;-71
2022/11/22 07:02:05;;;;;;;3.93;1.90;;;6.70;99.90;;;;;;5076943;28;20469;-72
2022/11/22 07:04:31;;;;;;;2.40;1.50;;;6.70;99.90;;;;;;5073530;28;20226;-72
2022/11/22 07:06:56;;;;;;;1.53;1.43;;;6.70;99.90;;;;;;5076667;28;20453;-72
2022/11/22 07:09:22;;;;;;;3.30;1.60;;;6.70;99.90;;;;;;5099742;28;20249;-72
2022/11/22 07:11:47;;;;;;;4.30;1.60;;;6.70;99.90;;;;;;5073960;28;20218;-72
2022/11/22 07:14:13;;;;;;;7.90;1.70;;;6.70;99.90;;;;;;5067308;28;20269;-71
2022/11/22 07:16:39;;;;;;;8.43;1.60;;;6.70;99.90;;;;;;5083085;28;20220;-72
2022/11/22 07:19:05;;;;;;;4.67;1.53;;;6.70;99.90;;;;;;5069335;28;20295;-71
2022/11/22 07:21:31;;;;;;;2.87;1.73;;;6.70;99.90;;;;;;5070502;28;20245;-71
2022/11/22 07:23:57;;;;;;;7.30;1.90;;;6.70;99.90;;;;;;5072230;28;20489;-72
2022/11/22 07:26:25;;;;;;;2.17;1.30;;;6.70;99.90;;;;;;5069064;28;20473;-72
2022/11/22 07:28:51;;;;;;;7.63;1.60;;;6.70;99.90;;;;;;5075620;28;20226;-71
2022/11/22 07:31:17;;;;;;;8.70;2.13;;;6.70;99.90;;;;;;5050117;28;20445;-73
2022/11/22 07:33:44;;;;;;;3.67;1.83;;;6.70;99.90;;;;;;5053536;28;20588;-72
2022/11/22 07:36:18;;;;;;;4.07;1.80;;;6.70;99.90;;;;;;5070612;28;20544;-72
2022/11/22 07:38:44;;;;;;;3.67;1.50;;;6.70;99.90;;;;;;5086414;28;20548;-72
2022/11/22 07:41:10;;;;;;;2.77;1.47;;;6.70;99.90;;;;;;5051291;28;20806;-72
2022/11/22 07:43:36;;;;;;;4.83;2.03;;;6.70;99.90;;;;;;5072677;28;20462;-71
2022/11/22 07:46:04;;;;;;;5.90;2.23;;;6.70;99.90;;;;;;5080078;28;20217;-72
2022/11/22 07:48:30;;;;;;;3.07;1.17;;;6.70;99.90;;;;;;5064230;28;20454;-72
2022/11/22 07:50:55;;;;;;;8.20;1.90;;;6.70;99.90;;;;;;5073091;28;21003;-72
2022/11/22 07:53:21;;;;;;;2.80;1.20;;;6.70;99.90;;;;;;5073432;28;20722;-72
2022/11/22 07:55:47;;;;;;;1.20;1.10;;;6.70;99.90;;;;;;5083311;28;20234;-72
2022/11/22 07:58:12;;;;;;;1.13;1.00;;;6.60;99.90;;;;;;5075009;28;20646;-72
2022/11/22 08:00:38;;;;;;;2.67;1.70;;;6.60;99.90;;;;;;5075032;28;20221;-71
2022/11/22 08:03:07;;;;;;;1.77;1.50;;;6.60;99.90;;;;;;5072230;28;20223;-71
2022/11/22 08:05:32;;;;;;;2.03;1.70;;;6.60;99.90;;;;;;5051018;28;21135;-70
2022/11/22 08:07:58;;;;;;;4.00;1.87;;;6.60;99.90;;;;;;5078613;28;20540;-72
2022/11/22 08:10:24;;;;;;;4.90;1.97;;;6.60;99.90;;;;;;5084192;28;20219;-72
2022/11/22 08:12:49;;;;;;;3.53;2.53;;;6.60;99.90;;;;;;5051122;28;20604;-72
2022/11/22 08:15:16;;;;;;;2.30;2.00;;;6.60;99.90;;;;;;5083675;28;20219;-71
2022/11/22 08:17:42;;;;;;;3.50;1.70;;;6.70;99.90;;;;;;5081369;28;20219;-71
2022/11/22 08:20:08;;;;;;;3.00;2.00;;;6.70;99.90;;;;;;5071280;28;20461;-72
2022/11/22 08:22:36;;;;;;;2.43;1.63;;;6.70;99.90;;;;;;5074103;28;20548;-71
2022/11/22 08:25:02;;;;;;;2.00;1.27;;;6.70;99.90;;;;;;5076579;28;20458;-72
2022/11/22 08:27:27;;;;;;;3.10;1.50;;;6.60;99.90;;;;;;5075943;28;20863;-72
2022/11/22 08:29:53;;;;;;;2.87;1.30;;;6.60;99.90;;;;;;5078587;28;20458;-72
2022/11/22 08:32:19;;;;;;;5.07;1.40;;;6.60;99.90;;;;;;5070561;28;20245;-73
2022/11/22 08:34:44;;;;;;;7.90;1.80;;;6.60;99.90;;;;;;5082368;28;20222;-72
2022/11/22 08:37:10;;;;;;;1.63;1.40;;;6.60;99.90;;;;;;5069544;28;20214;-71
2022/11/22 08:39:36;;;;;;;1.60;1.50;;;6.60;99.90;;;;;;5079678;28;20226;-72
2022/11/22 08:42:01;;;;;;;8.30;1.60;;;6.70;99.90;;;;;;5081292;28;20230;-72
2022/11/22 08:44:27;;;;;;;3.90;1.27;;;6.70;99.90;;;;;;5082987;28;20283;-72
2022/11/22 08:46:53;;;;;;;2.90;1.40;;;6.70;99.90;;;;;;5067951;28;20309;-72
2022/11/22 08:49:18;;;;;;;5.53;2.07;;;6.70;99.90;;;;;;5047559;28;20235;-72
2022/11/22 08:51:45;;;;;;;3.27;1.80;;;6.60;99.90;;;;;;5067954;28;20718;-72
2022/11/22 08:54:11;;;;;;;3.40;2.53;;;6.60;99.90;;;;;;5084968;28;20309;-72
2022/11/22 08:56:37;;;;;;;8.20;2.50;;;6.60;99.90;;;;;;5077301;28;20466;-69
2022/11/22 08:59:03;;;;;;;5.53;2.63;;;6.60;99.90;;;;;;5074161;28;20569;-72
2022/11/22 09:01:28;;;;;;;4.30;3.00;;;6.60;99.90;;;;;;5070253;28;20233;-72
2022/11/22 09:03:54;;;;;;;9.63;3.30;;;6.60;99.90;;;;;;5081044;28;20276;-72
2022/11/22 09:06:20;;;;;;;5.57;3.00;;;6.60;99.90;;;;;;5078184;28;20276;-72
2022/11/22 09:08:46;;;;;;;3.87;2.80;;;6.60;99.90;;;;;;5075609;28;20219;-72
2022/11/22 09:11:15;;;;;;;6.13;2.83;;;6.60;99.90;;;;;;5058153;28;20459;-72
2022/11/22 09:13:41;;;;;;;4.00;2.40;;;6.70;99.90;;;;;;5067093;28;20487;-70
2022/11/22 09:16:12;;;;;;;3.10;2.10;;;6.70;99.90;;;;;;5082863;28;20448;-72
2022/11/22 09:18:39;;;;;;;7.07;2.73;;;6.70;99.90;;;;;;5069344;28;20461;-72
2022/11/22 09:21:14;;;;;;;5.50;3.10;;;6.60;99.90;;;;;;5071433;28;20477;-72
2022/11/22 09:23:40;;;;;;;5.30;2.60;;;6.70;99.90;;;;;;5087598;28;20456;-70
2022/11/22 09:26:08;;;;;;;5.40;2.83;;;6.70;99.90;;;;;;5071892;28;20445;-72
2022/11/22 09:28:34;;;;;;;8.50;3.88;;;6.70;99.90;;;;;;5075177;28;20414;-72
2022/11/22 09:31:04;;;;;;;26.23;6.40;;;6.70;99.90;;;;;;5071215;28;20226;-72
2022/11/22 09:33:32;;;;;;;16.73;4.07;;;6.80;99.90;;;;;;5094068;28;20477;-73
2022/11/22 09:35:59;;;;;;;7.03;2.60;;;6.80;99.90;;;;;;5062824;28;20890;-72
2022/11/22 09:38:25;;;;;;;2.43;2.23;;;6.90;99.90;;;;;;5059349;28;20446;-73
2022/11/22 09:40:51;;;;;;;7.13;3.23;;;6.90;99.90;;;;;;5084405;28;20593;-72
2022/11/22 09:43:47;;;;;;;4.30;2.30;;;6.90;99.90;;;;;;5086439;28;20677;-72
2022/11/22 09:46:31;;;;;;;5.00;2.10;;;6.90;99.90;;;;;;5074647;28;20226;-72
2022/11/22 09:49:34;;;;;;;2.60;2.23;;;6.90;99.90;;;;;;5104939;27;20446;-72
2022/11/22 09:52:17;;;;;;;5.53;2.10;;;6.90;99.90;;;;;;5090631;28;20476;-72
2022/11/22 09:55:02;;;;;;;13.73;2.13;;;6.90;99.90;;;;;;5092282;28;20829;-71
2022/11/22 09:57:36;;;;;;;2.93;1.93;;;6.90;99.90;;;;;;5098530;28;20432;-72
2022/11/22 10:00:06;;;;;;;3.20;1.70;;;7.00;99.90;;;;;;5047560;28;20512;-71
2022/11/22 10:02:46;;;;;;;4.67;2.87;;;7.00;99.90;;;;;;5072937;28;20464;-72
2022/11/22 10:05:19;;;;;;;4.90;2.70;;;7.00;99.90;;;;;;5071016;28;20476;-72
2022/11/22 10:08:03;;;;;;;6.63;4.13;;;7.00;99.90;;;;;;5064585;28;20552;-72
2022/11/22 10:10:50;;;;;;;12.97;5.53;;;7.00;99.90;;;;;;5084371;28;20958;-70
2022/11/22 10:13:30;;;;;;;30.87;15.93;;;7.10;99.90;;;;;;5076360;28;20536;-72
2022/11/22 10:16:17;;;;;;;22.27;11.67;;;7.10;99.90;;;;;;5064891;28;20545;-73
2022/11/22 10:18:44;;;;;;;18.23;9.20;;;7.10;99.90;;;;;;5057363;28;20467;-71
2022/11/22 10:21:14;;;;;;;10.17;4.17;;;7.10;99.90;;;;;;5083114;28;20608;-72
2022/11/22 10:23:44;;;;;;;11.37;5.90;;;7.10;99.90;;;;;;5063626;28;20460;-70
2022/11/22 10:26:26;;;;;;;13.43;7.13;;;7.10;99.90;;;;;;5080353;28;20547;-72
2022/11/22 10:29:16;;;;;;;5.87;4.67;;;7.10;99.90;;;;;;5092701;28;20462;-71
2022/11/22 10:32:18;;;;;;;4.67;1.70;;;7.20;99.90;;;;;;5071501;28;20450;-71
2022/11/22 10:35:18;;;;;;;2.97;1.60;;;7.20;99.90;;;;;;5092375;28;20478;-72
2022/11/22 10:37:54;;;;;;;4.53;1.67;;;7.20;99.90;;;;;;5061136;28;20521;-71
2022/11/22 10:40:39;;;;;;;3.00;1.27;;;7.20;99.90;;;;;;5082736;28;20818;-72
2022/11/22 10:43:35;;;;;;;4.73;1.33;;;7.30;99.90;;;;;;5092442;28;20515;-71
2022/11/22 10:46:15;;;;;;;5.90;1.73;;;7.40;99.90;;;;;;5080520;28;20453;-72
2022/11/22 10:48:55;;;;;;;1.10;1.03;;;7.40;99.90;;;;;;5067887;28;20457;-70
2022/11/22 10:51:21;;;;;;;1.97;1.47;;;7.50;99.90;;;;;;5069387;28;20456;-72
2022/11/22 10:53:53;;;;;;;3.77;1.37;;;7.50;99.90;;;;;;5074482;28;20441;-72
2022/11/22 10:56:45;;;;;;;2.77;1.47;;;7.50;99.90;;;;;;5075183;28;20290;-72
2022/11/22 10:59:38;;;;;;;9.23;2.90;;;7.50;99.90;;;;;;5073798;28;20514;-72
2022/11/22 11:02:26;;;;;;;5.97;2.33;;;7.60;99.90;;;;;;5071920;28;20480;-72
2022/11/22 11:04:54;;;;;;;2.07;1.47;;;7.60;99.90;;;;;;5104130;27;20449;-73
2022/11/22 11:07:22;;;;;;;5.10;1.30;;;7.70;99.90;;;;;;5079954;28;20452;-72
2022/11/22 11:09:58;;;;;;;2.07;1.10;;;7.80;99.90;;;;;;5088776;28;20466;-71
2022/11/22 11:12:53;;;;;;;2.93;1.23;;;7.90;99.90;;;;;;5087815;28;20535;-71
2022/11/22 11:15:50;;;;;;;1.40;1.30;;;7.90;99.90;;;;;;5074690;28;20489;-72
2022/11/22 11:18:36;;;;;;;1.10;1.00;;;7.90;99.90;;;;;;5068238;28;20524;-73
2022/11/22 11:21:05;;;;;;;5.90;0.80;;;8.00;99.90;;;;;;5054512;28;20464;-71
2022/11/22 11:23:31;;;;;;;1.33;0.87;;;8.00;99.90;;;;;;5071725;28;20436;-73
2022/11/22 11:26:22;;;;;;;2.10;0.70;;;7.90;99.90;;;;;;5078319;28;20483;-73
2022/11/22 11:28:48;;;;;;;5.93;1.07;;;8.00;99.90;;;;;;5065941;28;20279;-71
2022/11/22 11:31:17;;;;;;;2.10;1.00;;;8.00;99.90;;;;;;5103988;27;20850;-72
2022/11/22 11:33:44;;;;;;;0.73;0.73;;;8.00;99.90;;;;;;5067635;28;20458;-72
2022/11/22 11:36:18;;;;;;;2.50;0.87;;;8.00;99.90;;;;;;5070258;28;20453;-72
2022/11/22 11:38:43;;;;;;;3.87;1.00;;;8.00;99.90;;;;;;5078341;28;20458;-72
2022/11/22 11:41:23;;;;;;;3.00;1.20;;;8.00;99.90;;;;;;5074219;28;20474;-72
2022/11/22 11:43:51;;;;;;;5.23;1.20;;;8.00;99.90;;;;;;5072445;28;20279;-72
2022/11/22 11:46:16;;;;;;;1.30;0.67;;;8.00;99.90;;;;;;5092593;28;20452;-72
2022/11/22 11:48:42;;;;;;;4.33;1.40;;;8.00;99.90;;;;;;5068109;28;20438;-70
2022/11/22 11:51:22;;;;;;;1.47;1.37;;;8.00;99.90;;;;;;5048790;28;20600;-72
2022/11/22 11:53:56;;;;;;;3.70;1.43;;;8.00;99.90;;;;;;5071069;28;20984;-72
2022/11/22 11:56:32;;;;;;;2.00;1.40;;;8.00;99.90;;;;;;5081101;28;20467;-71
2022/11/22 11:59:02;;;;;;;1.53;1.20;;;8.00;99.90;;;;;;5069517;28;20461;-72
2022/11/22 12:01:31;;;;;;;4.63;1.60;;;8.00;99.90;;;;;;5066850;28;20469;-72
2022/11/22 12:04:01;;;;;;;4.07;1.27;;;8.00;99.90;;;;;;5073284;28;20464;-73
2022/11/22 12:06:29;;;;;;;1.30;1.20;;;8.00;99.90;;;;;;5078546;28;20543;-72
2022/11/22 12:08:56;;;;;;;3.37;1.07;;;8.00;99.90;;;;;;5087823;28;20519;-72
2022/11/22 12:11:29;;;;;;;1.90;0.97;;;7.90;99.90;;;;;;5093030;28;20476;-72
2022/11/22 12:14:04;;;;;;;0.60;0.60;;;7.90;99.90;;;;;;5075102;28;20461;-73
2022/11/22 12:16:42;;;;;;;2.10;0.70;;;7.90;99.90;;;;;;5107668;27;20957;-73
2022/11/22 12:19:46;;;;;;;0.97;0.67;;;7.90;99.90;;;;;;5074899;28;20452;-72
2022/11/22 12:22:31;;;;;;;1.70;0.97;;;7.90;99.90;;;;;;5074852;28;20525;-72
2022/11/22 12:25:14;;;;;;;1.10;1.00;;;7.90;99.90;;;;;;5059913;28;20469;-73
2022/11/22 12:36:49;;;;;;;2.17;1.10;;;8.10;99.90;;;;;;5057929;27;20568;-70
2022/11/22 12:39:19;;;;;;;2.30;0.80;;;8.10;99.90;;;;;;5027064;28;20455;-69
2022/11/22 12:41:48;;;;;;;2.00;0.90;;;8.00;99.90;;;;;;5047024;28;20457;-70
2022/11/22 12:44:19;;;;;;;5.40;1.43;;;7.90;99.90;;;;;;5063113;28;20512;-69
2022/11/22 12:46:57;;;;;;;1.00;0.90;;;7.90;99.90;;;;;;5093149;28;20464;-70
2022/11/22 12:49:29;;;;;;;1.40;1.20;;;7.80;99.90;;;;;;5080779;28;21005;-70
2022/11/22 12:52:07;;;;;;;1.27;0.63;;;7.70;99.90;;;;;;5077437;28;20515;-70
2022/11/22 12:54:43;;;;;;;5.37;1.10;;;7.70;99.90;;;;;;5076634;28;20817;-69
2022/11/22 12:57:24;;;;;;;1.97;1.50;;;7.70;99.90;;;;;;5082127;28;20459;-67
2022/11/22 13:00:01;;;;;;;6.90;1.33;;;7.60;99.90;;;;;;5074953;28;20454;-70
2022/11/22 13:02:35;;;;;;;0.80;0.80;;;7.50;99.90;;;;;;5081150;28;20457;-69
2022/11/22 13:05:19;;;;;;;5.60;2.03;;;7.60;99.90;;;;;;5063505;28;20457;-70
2022/11/22 13:08:03;;;;;;;1.87;0.97;;;7.60;99.90;;;;;;5082089;28;20456;-70
2022/11/22 13:10:49;;;;;;;4.93;1.10;;;7.50;99.90;;;;;;5066669;28;20481;-70
2022/11/22 13:13:30;;;;;;;2.60;0.87;;;7.60;99.90;;;;;;5079611;28;20510;-69
2022/11/22 13:15:59;;;;;;;1.97;1.10;;;7.70;99.90;;;;;;5076224;28;20902;-70
2022/11/22 13:18:28;;;;;;;1.47;0.90;;;7.60;99.90;;;;;;5058947;28;20438;-71
2022/11/22 13:21:18;;;;;;;1.00;0.90;;;7.60;99.90;;;;;;5081596;28;20484;-69
2022/11/22 13:24:02;;;;;;;1.47;1.03;;;7.60;99.90;;;;;;5063919;28;20448;-69
2022/11/22 13:26:48;;;;;;;8.20;1.27;;;7.50;99.90;;;;;;5062686;28;20495;-69
2022/11/22 13:29:23;;;;;;;2.80;0.80;;;7.50;99.90;;;;;;5055747;28;20453;-69
2022/11/22 13:32:12;;;;;;;3.97;1.60;;;7.60;99.90;;;;;;5073097;28;20465;-70